Time;durP1;ratioP1;P1;durP2;ratioP2;P2;SDS_P1;SDS_P2;PMS_P1;PMS_P2;Temp;Humidity;BMP_temperature;BMP_pressure;BME280_temperature;BME280_humidity;BME280_pressure;Samples;Min_cycle;Max_cycle;Signal;HPM_P1;HPM_P2
2023/09/09 00:00:28;;;;;;;16.60;7.10;;;;;;;;;;4943592;28;20262;-91
2023/09/09 00:03:41;;;;;;;12.05;6.95;;;;;;;;;;4944516;29;20246;-91
2023/09/09 00:06:52;;;;;;;13.05;7.47;;;;;;;;;;4943677;29;20210;-88
2023/09/09 00:10:04;;;;;;;13.05;7.18;;;;;;;;;;4945326;28;20734;-92
2023/09/09 00:13:16;;;;;;;14.40;7.15;;;;;;;;;;4944771;28;20270;-90
2023/09/09 00:16:33;;;;;;;14.98;8.02;;;;;;;;;;4945556;29;20243;-88
2023/09/09 00:19:46;;;;;;;11.07;6.88;;;;;;;;;;4944237;29;20667;-89
2023/09/09 00:22:58;;;;;;;12.93;7.10;;;;;;;;;;4944647;29;20243;-90
2023/09/09 00:26:09;;;;;;;15.40;7.10;;;;;;;;;;4944914;29;20199;-90
2023/09/09 00:29:22;;;;;;;14.57;7.82;;;;;;;;;;4944926;29;20295;-91
2023/09/09 00:32:33;;;;;;;16.02;7.40;;;;;;;;;;4944609;29;20609;-91
2023/09/09 00:35:46;;;;;;;17.42;7.60;;;;;;;;;;4945268;29;20219;-88
2023/09/09 00:38:58;;;;;;;11.65;7.15;;;;;;;;;;4944941;29;20670;-89
2023/09/09 00:42:10;;;;;;;13.32;7.53;;;;;;;;;;4945024;29;20199;-91
2023/09/09 00:45:22;;;;;;;16.60;7.53;;;;;;;;;;4944438;29;20245;-90
2023/09/09 00:48:34;;;;;;;14.57;7.43;;;;;;;;;;4944415;28;20246;-90
2023/09/09 00:51:47;;;;;;;13.13;7.13;;;;;;;;;;4944449;28;20191;-90
2023/09/09 00:54:59;;;;;;;13.73;6.55;;;;;;;;;;4944791;28;20234;-90
2023/09/09 00:58:11;;;;;;;12.88;7.15;;;;;;;;;;4943787;29;20191;-92
2023/09/09 01:01:22;;;;;;;14.18;7.35;;;;;;;;;;4944085;28;20668;-90
2023/09/09 01:04:35;;;;;;;16.25;7.10;;;;;;;;;;4943685;28;20218;-89
2023/09/09 01:07:49;;;;;;;11.48;6.53;;;;;;;;;;4944105;29;20199;-89
2023/09/09 01:11:02;;;;;;;13.38;6.70;;;;;;;;;;4942855;29;20598;-89
2023/09/09 01:14:14;;;;;;;12.20;6.82;;;;;;;;;;4941508;29;20195;-89
2023/09/09 01:17:25;;;;;;;12.27;6.85;;;;;;;;;;4941606;29;20250;-87
2023/09/09 01:20:37;;;;;;;14.38;6.75;;;;;;;;;;4941541;29;20196;-87
2023/09/09 01:23:50;;;;;;;14.15;6.97;;;;;;;;;;4941083;29;20211;-87
2023/09/09 01:27:01;;;;;;;13.52;7.38;;;;;;;;;;4941165;29;20188;-86
2023/09/09 01:30:12;;;;;;;15.63;8.40;;;;;;;;;;4940998;29;20355;-90
2023/09/09 01:33:24;;;;;;;16.15;8.88;;;;;;;;;;4940709;29;20192;-90
2023/09/09 01:36:36;;;;;;;17.42;8.48;;;;;;;;;;4941921;29;20215;-88
2023/09/09 01:39:49;;;;;;;18.77;9.35;;;;;;;;;;4941375;29;20557;-90
2023/09/09 01:43:01;;;;;;;16.33;7.82;;;;;;;;;;4942277;29;20265;-90
2023/09/09 01:46:12;;;;;;;16.80;8.02;;;;;;;;;;4940036;29;20195;-87
2023/09/09 01:49:24;;;;;;;16.15;8.18;;;;;;;;;;4942929;29;20247;-89
2023/09/09 01:52:35;;;;;;;14.50;7.55;;;;;;;;;;4940793;29;20199;-90
2023/09/09 01:55:48;;;;;;;13.43;7.47;;;;;;;;;;4940071;29;20316;-89
2023/09/09 01:58:59;;;;;;;13.68;7.75;;;;;;;;;;4939599;29;20195;-89
2023/09/09 02:02:15;;;;;;;15.05;7.10;;;;;;;;;;4940972;29;20188;-90
2023/09/09 02:05:27;;;;;;;13.73;7.57;;;;;;;;;;4946901;29;20281;-88
2023/09/09 02:08:38;;;;;;;17.35;7.78;;;;;;;;;;4941447;29;20217;-90
2023/09/09 02:11:51;;;;;;;14.50;7.10;;;;;;;;;;4941955;29;20225;-89
2023/09/09 02:15:03;;;;;;;14.82;6.68;;;;;;;;;;4942138;29;20199;-87
2023/09/09 02:18:17;;;;;;;13.65;7.47;;;;;;;;;;4940757;29;20191;-90
2023/09/09 02:21:30;;;;;;;11.68;7.13;;;;;;;;;;4940094;29;20315;-88
2023/09/09 02:24:41;;;;;;;13.75;7.35;;;;;;;;;;4939956;29;20244;-88
2023/09/09 02:27:55;;;;;;;14.43;7.22;;;;;;;;;;4944918;29;20320;-88
2023/09/09 02:31:06;;;;;;;12.75;6.70;;;;;;;;;;4944830;29;20191;-89
2023/09/09 02:34:18;;;;;;;13.73;6.72;;;;;;;;;;4943803;29;20199;-86
2023/09/09 02:37:30;;;;;;;13.27;6.63;;;;;;;;;;4943878;29;20198;-87
2023/09/09 02:40:41;;;;;;;13.77;6.55;;;;;;;;;;4943996;29;20195;-88
2023/09/09 02:43:54;;;;;;;10.95;6.20;;;;;;;;;;4943809;29;20191;-89
2023/09/09 02:47:06;;;;;;;12.07;6.88;;;;;;;;;;4943878;29;20647;-88
2023/09/09 02:50:17;;;;;;;13.45;7.18;;;;;;;;;;4944449;29;20223;-90
2023/09/09 02:53:30;;;;;;;14.45;6.63;;;;;;;;;;4943753;29;20662;-90
2023/09/09 02:56:41;;;;;;;12.98;7.28;;;;;;;;;;4943964;29;20202;-90
2023/09/09 02:59:54;;;;;;;13.45;7.00;;;;;;;;;;4944380;29;20666;-89
2023/09/09 03:03:06;;;;;;;12.15;6.68;;;;;;;;;;4943441;29;20278;-88
2023/09/09 03:06:18;;;;;;;19.35;8.27;;;;;;;;;;4942747;29;20670;-90
2023/09/09 03:09:30;;;;;;;14.30;8.05;;;;;;;;;;4943687;29;20235;-87
2023/09/09 03:12:41;;;;;;;15.68;7.90;;;;;;;;;;4943356;29;20292;-90
2023/09/09 03:15:55;;;;;;;12.75;7.68;;;;;;;;;;4943120;29;20190;-86
2023/09/09 03:19:07;;;;;;;12.70;7.25;;;;;;;;;;4948453;29;20191;-89
2023/09/09 03:22:18;;;;;;;12.50;7.07;;;;;;;;;;4943825;29;20557;-87
2023/09/09 03:25:29;;;;;;;13.70;7.25;;;;;;;;;;4944612;29;20195;-88
2023/09/09 03:28:40;;;;;;;14.40;7.90;;;;;;;;;;4943694;29;20702;-88
2023/09/09 03:31:54;;;;;;;16.40;7.60;;;;;;;;;;4943666;29;20207;-90
2023/09/09 03:35:06;;;;;;;11.90;7.28;;;;;;;;;;4943945;29;20224;-89
2023/09/09 03:38:17;;;;;;;13.73;7.20;;;;;;;;;;4942414;29;20280;-89
2023/09/09 03:41:28;;;;;;;13.30;7.47;;;;;;;;;;4944516;29;20609;-88
2023/09/09 03:44:41;;;;;;;13.57;7.22;;;;;;;;;;4946017;29;20272;-89
2023/09/09 03:47:54;;;;;;;12.93;6.63;;;;;;;;;;4943073;29;20252;-88
2023/09/09 03:51:06;;;;;;;11.95;6.78;;;;;;;;;;4943696;29;20549;-88
2023/09/09 03:54:18;;;;;;;15.73;7.47;;;;;;;;;;4943055;29;20195;-88
2023/09/09 03:57:29;;;;;;;11.95;7.78;;;;;;;;;;4942534;29;20662;-86
2023/09/09 04:00:40;;;;;;;14.98;6.97;;;;;;;;;;4941804;29;20191;-89
2023/09/09 04:03:53;;;;;;;12.23;7.40;;;;;;;;;;4942646;29;20599;-89
2023/09/09 04:07:05;;;;;;;13.48;7.35;;;;;;;;;;4943395;29;20219;-89
2023/09/09 04:10:17;;;;;;;14.13;7.82;;;;;;;;;;4942627;29;20227;-88
2023/09/09 04:13:30;;;;;;;11.77;7.50;;;;;;;;;;4942049;29;20207;-88
2023/09/09 04:16:43;;;;;;;14.63;7.53;;;;;;;;;;4942622;29;20191;-90
2023/09/09 04:19:56;;;;;;;14.85;7.53;;;;;;;;;;4942214;29;20204;-89
2023/09/09 04:23:09;;;;;;;17.05;7.63;;;;;;;;;;4942950;29;20233;-89
2023/09/09 04:26:21;;;;;;;22.52;7.47;;;;;;;;;;4943248;29;20230;-88
2023/09/09 04:29:33;;;;;;;12.57;7.03;;;;;;;;;;4944327;29;20251;-89
2023/09/09 04:32:45;;;;;;;14.48;7.38;;;;;;;;;;4942234;29;20199;-88
2023/09/09 04:35:58;;;;;;;15.52;6.97;;;;;;;;;;4944009;29;20277;-89
2023/09/09 04:39:09;;;;;;;13.30;6.90;;;;;;;;;;4941998;29;20242;-89
2023/09/09 04:42:21;;;;;;;14.43;7.38;;;;;;;;;;4942373;29;20235;-88
2023/09/09 04:45:32;;;;;;;14.20;7.10;;;;;;;;;;4942473;29;20199;-89
2023/09/09 04:48:46;;;;;;;11.80;7.15;;;;;;;;;;4941277;29;20775;-89
2023/09/09 04:51:59;;;;;;;12.25;7.32;;;;;;;;;;4941161;29;20219;-88
2023/09/09 04:55:10;;;;;;;13.85;7.30;;;;;;;;;;4941579;29;20195;-90
2023/09/09 04:58:22;;;;;;;13.85;8.10;;;;;;;;;;4942137;29;20323;-90
2023/09/09 05:01:34;;;;;;;13.32;7.47;;;;;;;;;;4942737;29;20546;-88
2023/09/09 05:04:46;;;;;;;12.65;7.45;;;;;;;;;;4940950;29;20203;-90
2023/09/09 05:07:59;;;;;;;13.80;7.68;;;;;;;;;;4941953;29;20200;-90
2023/09/09 05:11:11;;;;;;;9.80;6.80;;;;;;;;;;4942915;29;20223;-88
2023/09/09 05:14:22;;;;;;;12.60;7.45;;;;;;;;;;4943244;29;20258;-88
2023/09/09 05:17:34;;;;;;;13.73;7.03;;;;;;;;;;4942600;29;20304;-88
2023/09/09 05:20:46;;;;;;;11.35;7.40;;;;;;;;;;4945215;29;20203;-89
2023/09/09 05:24:00;;;;;;;15.10;7.07;;;;;;;;;;4944751;29;20269;-88
2023/09/09 05:27:12;;;;;;;12.30;6.80;;;;;;;;;;4943509;29;20271;-88
2023/09/09 05:30:24;;;;;;;12.13;6.78;;;;;;;;;;4942918;29;20215;-89
2023/09/09 05:33:35;;;;;;;12.95;6.35;;;;;;;;;;4940839;29;20195;-87
2023/09/09 05:36:47;;;;;;;15.35;6.85;;;;;;;;;;4944069;29;20207;-90
2023/09/09 05:40:00;;;;;;;11.23;6.45;;;;;;;;;;4941520;29;20188;-88
2023/09/09 05:43:12;;;;;;;17.88;6.20;;;;;;;;;;4941948;29;20250;-90
2023/09/09 05:46:23;;;;;;;11.25;6.15;;;;;;;;;;4941403;29;20211;-89
2023/09/09 05:49:35;;;;;;;11.23;6.40;;;;;;;;;;4940692;29;20195;-89
2023/09/09 05:52:48;;;;;;;11.85;6.15;;;;;;;;;;4941162;29;20569;-89
2023/09/09 05:56:01;;;;;;;11.85;5.90;;;;;;;;;;4948234;29;20247;-89
2023/09/09 05:59:12;;;;;;;13.30;6.53;;;;;;;;;;4943968;29;20271;-89
2023/09/09 06:02:25;;;;;;;11.43;6.32;;;;;;;;;;4943826;29;20319;-89
2023/09/09 06:05:36;;;;;;;14.07;7.03;;;;;;;;;;4945018;29;20671;-89
2023/09/09 06:08:47;;;;;;;13.73;6.60;;;;;;;;;;4942287;29;20219;-91
2023/09/09 06:12:00;;;;;;;13.10;6.93;;;;;;;;;;4942295;29;20199;-88
2023/09/09 06:15:12;;;;;;;10.25;6.35;;;;;;;;;;4940883;29;20190;-90
2023/09/09 06:18:23;;;;;;;16.92;7.32;;;;;;;;;;4941714;29;20218;-90
2023/09/09 06:21:37;;;;;;;13.60;7.50;;;;;;;;;;4941267;29;20199;-89
2023/09/09 06:24:49;;;;;;;14.48;6.70;;;;;;;;;;4941672;29;20199;-89
2023/09/09 06:28:02;;;;;;;11.38;6.82;;;;;;;;;;4943277;29;20215;-87
2023/09/09 06:31:15;;;;;;;13.95;6.03;;;;;;;;;;4942958;29;20219;-90
2023/09/09 06:34:27;;;;;;;18.75;6.82;;;;;;;;;;4943284;29;20207;-91
2023/09/09 06:37:38;;;;;;;10.07;5.95;;;;;;;;;;4942287;29;20195;-91
2023/09/09 06:40:49;;;;;;;12.80;5.88;;;;;;;;;;4941310;29;20273;-91
2023/09/09 06:44:04;;;;;;;9.07;5.50;;;;;;;;;;4944267;29;20195;-90
2023/09/09 06:47:16;;;;;;;11.18;5.78;;;;;;;;;;4941272;29;20191;-90
2023/09/09 06:50:28;;;;;;;12.50;6.40;;;;;;;;;;4941590;29;20222;-90
2023/09/09 06:53:39;;;;;;;11.23;6.50;;;;;;;;;;4942953;29;20196;-91
2023/09/09 06:56:51;;;;;;;13.00;6.95;;;;;;;;;;4941882;29;20257;-88
2023/09/09 07:00:04;;;;;;;12.75;6.93;;;;;;;;;;4941465;29;20195;-90
2023/09/09 07:03:15;;;;;;;11.68;7.15;;;;;;;;;;4942062;29;20922;-90
2023/09/09 07:06:27;;;;;;;12.95;7.55;;;;;;;;;;4943964;29;20208;-89
2023/09/09 07:09:38;;;;;;;12.23;6.65;;;;;;;;;;4940542;29;20299;-90
2023/09/09 07:12:50;;;;;;;14.77;7.40;;;;;;;;;;4942840;29;20207;-90
2023/09/09 07:16:03;;;;;;;13.38;7.13;;;;;;;;;;4945033;29;20346;-90
2023/09/09 07:19:15;;;;;;;12.45;7.10;;;;;;;;;;4945181;29;20199;-90
2023/09/09 07:22:26;;;;;;;14.75;7.55;;;;;;;;;;4945156;29;20675;-91
2023/09/09 07:25:37;;;;;;;13.02;7.25;;;;;;;;;;4944665;29;20271;-88
2023/09/09 07:28:48;;;;;;;14.85;7.32;;;;;;;;;;4944528;29;20199;-91
2023/09/09 07:32:01;;;;;;;11.48;6.75;;;;;;;;;;4943047;29;20219;-92
2023/09/09 07:35:13;;;;;;;11.55;6.72;;;;;;;;;;4943605;29;20273;-92
2023/09/09 07:38:25;;;;;;;10.55;6.00;;;;;;;;;;4945689;29;20347;-91
2023/09/09 07:41:36;;;;;;;12.02;6.38;;;;;;;;;;4945911;29;20195;-91
2023/09/09 07:44:48;;;;;;;10.93;6.32;;;;;;;;;;4948430;29;20559;-90
2023/09/09 07:48:01;;;;;;;9.43;6.07;;;;;;;;;;4946560;29;20195;-87
2023/09/09 07:51:14;;;;;;;8.60;5.53;;;;;;;;;;4946962;29;20215;-89
2023/09/09 07:54:26;;;;;;;11.70;5.53;;;;;;;;;;4947040;29;20247;-90
2023/09/09 07:57:38;;;;;;;9.05;5.45;;;;;;;;;;4950369;29;20255;-90
2023/09/09 08:00:58;;;;;;;7.90;4.97;;;;;;;;;;4944314;29;20496;-90
2023/09/09 08:04:11;;;;;;;9.02;5.30;;;;;;;;;;4944556;29;20191;-91
2023/09/09 08:07:23;;;;;;;7.05;4.88;;;;;;;;;;4944663;29;20212;-90
2023/09/09 08:10:35;;;;;;;8.43;5.38;;;;;;;;;;4946305;29;20230;-88
2023/09/09 08:13:47;;;;;;;6.97;4.72;;;;;;;;;;4944737;29;20670;-89
2023/09/09 08:16:57;;;;;;;7.55;5.05;;;;;;;;;;4944691;29;20195;-90
2023/09/09 08:20:11;;;;;;;10.48;5.22;;;;;;;;;;4946523;29;20276;-88
2023/09/09 08:23:23;;;;;;;7.82;4.90;;;;;;;;;;4946628;29;20191;-91
2023/09/09 08:26:34;;;;;;;7.38;5.00;;;;;;;;;;4944656;29;20195;-91
2023/09/09 08:29:46;;;;;;;11.68;5.50;;;;;;;;;;4946299;29;20194;-91
2023/09/09 08:32:58;;;;;;;7.90;4.80;;;;;;;;;;4949019;29;20194;-89
2023/09/09 08:36:11;;;;;;;6.63;5.03;;;;;;;;;;4944380;29;20210;-90
2023/09/09 08:39:24;;;;;;;11.57;5.60;;;;;;;;;;4945735;28;20192;-91
2023/09/09 08:42:41;;;;;;;7.35;4.85;;;;;;;;;;4947752;29;20253;-90
2023/09/09 08:46:00;;;;;;;6.90;4.95;;;;;;;;;;4952482;29;20214;-90
2023/09/09 08:49:14;;;;;;;10.40;5.55;;;;;;;;;;4946751;29;20194;-89
2023/09/09 08:52:28;;;;;;;7.53;4.90;;;;;;;;;;4945431;29;20265;-90
2023/09/09 08:55:43;;;;;;;6.97;4.72;;;;;;;;;;4946306;29;20288;-88
2023/09/09 08:58:55;;;;;;;8.52;5.28;;;;;;;;;;4945395;29;20214;-92
2023/09/09 09:02:13;;;;;;;7.93;5.93;;;;;;;;;;4945853;29;20424;-88
2023/09/09 09:05:25;;;;;;;8.20;5.47;;;;;;;;;;4945356;29;20564;-88
2023/09/09 09:08:38;;;;;;;13.52;5.32;;;;;;;;;;4942595;29;20226;-88
2023/09/09 09:11:51;;;;;;;8.82;5.47;;;;;;;;;;4943321;29;20615;-88
2023/09/09 09:15:03;;;;;;;9.50;5.35;;;;;;;;;;4947325;29;20243;-91
2023/09/09 09:18:15;;;;;;;7.07;4.88;;;;;;;;;;4943512;29;20271;-91
2023/09/09 09:21:27;;;;;;;9.23;5.32;;;;;;;;;;4945434;29;20223;-90
2023/09/09 09:24:43;;;;;;;11.20;5.50;;;;;;;;;;4942320;29;20274;-92
2023/09/09 09:27:59;;;;;;;7.55;5.13;;;;;;;;;;4942887;29;20214;-92
2023/09/09 09:31:20;;;;;;;10.07;5.00;;;;;;;;;;4944168;29;20203;-92
2023/09/09 09:34:34;;;;;;;6.85;4.88;;;;;;;;;;4949213;29;20199;-90
2023/09/09 09:37:51;;;;;;;11.52;4.90;;;;;;;;;;4943623;29;20193;-91
2023/09/09 09:41:06;;;;;;;9.63;6.40;;;;;;;;;;4943650;29;20278;-90
2023/09/09 09:44:21;;;;;;;10.20;5.88;;;;;;;;;;4945956;29;20186;-92
2023/09/09 09:47:42;;;;;;;7.93;4.78;;;;;;;;;;4946187;29;20645;-91
2023/09/09 09:50:54;;;;;;;9.15;5.75;;;;;;;;;;4945849;29;20191;-92
2023/09/09 09:54:05;;;;;;;9.88;4.68;;;;;;;;;;4942318;29;20203;-90
2023/09/09 09:57:18;;;;;;;8.13;5.28;;;;;;;;;;4943793;29;20218;-90
2023/09/09 10:00:30;;;;;;;7.22;5.28;;;;;;;;;;4943352;29;20198;-91
2023/09/09 10:03:43;;;;;;;7.05;4.93;;;;;;;;;;4943991;29;20276;-91
2023/09/09 10:06:56;;;;;;;10.68;5.72;;;;;;;;;;4943359;29;20247;-88
2023/09/09 10:10:11;;;;;;;8.55;5.38;;;;;;;;;;4944343;29;20226;-90
2023/09/09 10:13:27;;;;;;;8.80;4.60;;;;;;;;;;4945704;29;20533;-93
2023/09/09 10:16:39;;;;;;;7.80;4.18;;;;;;;;;;4944412;29;20290;-91
2023/09/09 10:19:57;;;;;;;5.70;4.70;;;;;;;;;;4943721;29;20206;-89
2023/09/09 10:23:09;;;;;;;10.32;4.95;;;;;;;;;;4945486;29;20206;-91
2023/09/09 10:26:21;;;;;;;9.55;5.00;;;;;;;;;;4946992;29;20860;-90
2023/09/09 10:29:36;;;;;;;7.93;4.88;;;;;;;;;;4947239;29;20763;-88
2023/09/09 10:32:51;;;;;;;7.00;4.82;;;;;;;;;;4949592;29;20187;-88
2023/09/09 10:36:03;;;;;;;10.10;4.90;;;;;;;;;;4948637;29;20199;-92
2023/09/09 10:39:16;;;;;;;7.47;4.75;;;;;;;;;;4949097;29;20209;-91
2023/09/09 10:42:29;;;;;;;8.05;4.82;;;;;;;;;;4947176;29;20721;-91
2023/09/09 10:45:44;;;;;;;8.68;5.30;;;;;;;;;;4946562;29;20211;-89
2023/09/09 10:48:56;;;;;;;7.35;5.03;;;;;;;;;;4953988;28;20191;-90
2023/09/09 10:52:07;;;;;;;6.55;5.18;;;;;;;;;;4951139;29;20270;-89
2023/09/09 10:55:19;;;;;;;10.40;5.07;;;;;;;;;;4945281;29;20276;-91
2023/09/09 10:58:33;;;;;;;8.80;4.88;;;;;;;;;;4945343;29;20230;-90
2023/09/09 11:01:46;;;;;;;12.70;4.70;;;;;;;;;;4944136;29;20342;-91
2023/09/09 11:05:02;;;;;;;6.88;4.72;;;;;;;;;;4947962;29;20222;-91
2023/09/09 11:08:28;;;;;;;6.63;4.40;;;;;;;;;;4947504;29;20253;-92
2023/09/09 11:11:43;;;;;;;8.68;4.70;;;;;;;;;;4946063;29;20190;-91
2023/09/09 11:14:59;;;;;;;7.85;5.18;;;;;;;;;;4948609;29;20670;-91
2023/09/09 11:18:14;;;;;;;7.28;4.30;;;;;;;;;;4948233;29;20196;-91
2023/09/09 11:21:26;;;;;;;6.82;4.85;;;;;;;;;;4946993;29;20214;-89
2023/09/09 11:24:38;;;;;;;5.90;4.35;;;;;;;;;;4947163;29;20190;-92
2023/09/09 11:27:51;;;;;;;9.25;4.40;;;;;;;;;;4950093;29;20194;-91
2023/09/09 11:34:34;;;;;;;7.90;4.07;;;;;;;;;;4950875;29;20214;-90
2023/09/09 11:37:46;;;;;;;7.20;4.35;;;;;;;;;;4948301;29;20568;-92
2023/09/09 11:40:58;;;;;;;8.15;4.65;;;;;;;;;;4946536;29;20182;-92
2023/09/09 11:44:10;;;;;;;5.45;4.15;;;;;;;;;;4944842;29;20186;-92
2023/09/09 11:47:22;;;;;;;5.30;4.20;;;;;;;;;;4945074;29;20196;-92
2023/09/09 11:50:46;;;;;;;5.50;4.15;;;;;;;;;;4944486;29;20198;-90
2023/09/09 11:53:59;;;;;;;7.07;4.85;;;;;;;;;;4947156;29;20250;-91
2023/09/09 11:57:11;;;;;;;4.60;3.95;;;;;;;;;;4945966;29;20308;-90
2023/09/09 12:00:23;;;;;;;7.22;3.78;;;;;;;;;;4946961;28;20199;-89
2023/09/09 12:03:35;;;;;;;5.78;4.00;;;;;;;;;;4946680;29;20337;-90
2023/09/09 12:06:50;;;;;;;5.13;3.65;;;;;;;;;;4946374;29;20199;-89
2023/09/09 12:10:03;;;;;;;4.82;3.88;;;;;;;;;;4944732;29;20272;-90
2023/09/09 12:13:15;;;;;;;5.38;4.25;;;;;;;;;;4945663;29;20219;-90
2023/09/09 12:16:27;;;;;;;7.13;5.63;;;;;;;;;;4945352;29;20253;-90
2023/09/09 12:19:46;;;;;;;7.25;3.95;;;;;;;;;;4946918;29;20195;-91
2023/09/09 12:22:59;;;;;;;8.32;4.32;;;;;;;;;;4945218;29;20295;-91
2023/09/09 12:26:11;;;;;;;4.40;3.63;;;;;;;;;;4946331;29;20222;-92
2023/09/09 12:29:23;;;;;;;7.15;4.30;;;;;;;;;;4944925;29;20201;-91
2023/09/09 12:32:34;;;;;;;7.38;3.75;;;;;;;;;;4943139;29;20244;-87
2023/09/09 12:35:46;;;;;;;8.50;4.35;;;;;;;;;;4945644;29;20234;-90
2023/09/09 12:38:59;;;;;;;10.82;3.75;;;;;;;;;;4944809;29;20186;-91
2023/09/09 12:42:11;;;;;;;7.78;4.38;;;;;;;;;;4944537;29;20222;-90
2023/09/09 12:45:24;;;;;;;8.32;4.60;;;;;;;;;;4944902;29;20186;-90
2023/09/09 12:48:51;;;;;;;8.05;4.25;;;;;;;;;;4944296;29;20198;-92
2023/09/09 12:52:02;;;;;;;4.15;3.67;;;;;;;;;;4946506;29;20654;-91
2023/09/09 12:55:16;;;;;;;4.85;3.80;;;;;;;;;;4947949;29;20558;-90
2023/09/09 12:58:28;;;;;;;5.82;4.25;;;;;;;;;;4943939;29;20270;-92
2023/09/09 13:01:39;;;;;;;6.20;3.60;;;;;;;;;;4951618;29;20717;-90
2023/09/09 13:04:50;;;;;;;5.05;3.83;;;;;;;;;;4943146;29;20620;-92
2023/09/09 13:08:02;;;;;;;10.93;4.00;;;;;;;;;;4943208;29;20210;-92
2023/09/09 13:11:15;;;;;;;8.50;4.28;;;;;;;;;;4946301;29;20187;-89
2023/09/09 13:14:27;;;;;;;6.40;3.97;;;;;;;;;;4944361;29;20195;-89
2023/09/09 13:17:39;;;;;;;5.85;4.05;;;;;;;;;;4943631;29;20254;-90
2023/09/09 13:20:51;;;;;;;6.40;3.65;;;;;;;;;;4943705;29;20198;-90
2023/09/09 13:24:03;;;;;;;5.03;3.53;;;;;;;;;;4943883;29;20194;-90
2023/09/09 13:27:18;;;;;;;5.60;3.38;;;;;;;;;;4943293;29;20203;-91
2023/09/09 13:30:30;;;;;;;6.10;3.13;;;;;;;;;;4943588;29;20261;-91
2023/09/09 13:33:42;;;;;;;5.68;3.90;;;;;;;;;;4942611;29;20187;-91
2023/09/09 13:36:53;;;;;;;4.53;3.35;;;;;;;;;;4942093;29;20314;-91
2023/09/09 13:40:06;;;;;;;4.82;3.53;;;;;;;;;;4942158;29;20242;-92
2023/09/09 13:43:18;;;;;;;5.78;3.55;;;;;;;;;;4943531;29;20250;-90
2023/09/09 13:46:30;;;;;;;5.32;3.30;;;;;;;;;;4943638;29;20281;-91
2023/09/09 13:49:43;;;;;;;5.60;3.17;;;;;;;;;;4942420;29;20221;-91
2023/09/09 13:52:55;;;;;;;5.28;3.40;;;;;;;;;;4943783;29;20190;-91
2023/09/09 13:56:07;;;;;;;6.00;3.60;;;;;;;;;;4945577;29;20295;-92
2023/09/09 13:59:20;;;;;;;6.53;3.53;;;;;;;;;;4945459;29;20686;-91
2023/09/09 14:02:32;;;;;;;3.28;2.92;;;;;;;;;;4945147;29;20206;-92
2023/09/09 14:05:44;;;;;;;6.60;3.55;;;;;;;;;;4943468;29;20674;-91
2023/09/09 14:08:56;;;;;;;6.82;3.58;;;;;;;;;;4941208;29;20222;-87
2023/09/09 14:12:08;;;;;;;4.00;3.45;;;;;;;;;;4942893;29;20328;-93
2023/09/09 14:15:21;;;;;;;7.13;3.92;;;;;;;;;;4942456;29;20347;-92
2023/09/09 14:18:33;;;;;;;6.63;3.50;;;;;;;;;;4943679;29;20303;-87
2023/09/09 14:21:44;;;;;;;5.75;3.50;;;;;;;;;;4946141;29;20198;-90
2023/09/09 14:24:56;;;;;;;5.32;3.70;;;;;;;;;;4948909;29;20218;-93
2023/09/09 14:28:08;;;;;;;4.85;3.55;;;;;;;;;;4949274;29;20201;-90
2023/09/09 14:31:24;;;;;;;7.30;3.50;;;;;;;;;;4948932;29;20198;-91
2023/09/09 14:34:36;;;;;;;6.72;3.65;;;;;;;;;;4949016;29;20199;-90
2023/09/09 14:37:48;;;;;;;7.00;3.33;;;;;;;;;;4949569;29;20595;-90
2023/09/09 14:41:00;;;;;;;5.43;3.75;;;;;;;;;;4949284;29;20264;-91
2023/09/09 14:44:12;;;;;;;5.40;3.40;;;;;;;;;;4947222;29;20190;-91
2023/09/09 14:47:26;;;;;;;5.43;3.63;;;;;;;;;;4947528;29;20194;-89
2023/09/09 14:50:37;;;;;;;4.50;3.75;;;;;;;;;;4950854;29;20326;-90
2023/09/09 14:53:48;;;;;;;5.63;4.15;;;;;;;;;;4950555;29;20194;-89
2023/09/09 14:57:00;;;;;;;5.55;3.85;;;;;;;;;;4947751;29;20210;-90
2023/09/09 15:00:12;;;;;;;5.65;3.75;;;;;;;;;;4947039;29;20195;-90
2023/09/09 15:03:25;;;;;;;5.35;3.70;;;;;;;;;;4946417;29;20218;-90
2023/09/09 15:06:37;;;;;;;7.65;3.60;;;;;;;;;;4947923;29;20210;-90
2023/09/09 15:09:49;;;;;;;6.35;3.95;;;;;;;;;;4948429;29;20276;-91
2023/09/09 15:13:00;;;;;;;5.80;4.00;;;;;;;;;;4949044;29;20274;-88
2023/09/09 15:16:13;;;;;;;4.18;3.42;;;;;;;;;;4947497;29;20198;-91
2023/09/09 15:19:26;;;;;;;4.90;3.63;;;;;;;;;;4947398;29;20198;-91
2023/09/09 15:22:38;;;;;;;7.00;3.60;;;;;;;;;;4948948;29;20234;-89
2023/09/09 15:25:49;;;;;;;8.90;4.07;;;;;;;;;;4948020;29;20286;-90
2023/09/09 15:29:02;;;;;;;6.50;3.72;;;;;;;;;;4949151;29;20249;-90
2023/09/09 15:32:13;;;;;;;4.70;3.45;;;;;;;;;;4947633;29;20190;-86
2023/09/09 15:35:28;;;;;;;6.90;3.83;;;;;;;;;;4945896;29;20190;-90
2023/09/09 15:38:41;;;;;;;7.07;3.88;;;;;;;;;;4949108;29;20271;-90
2023/09/09 15:41:55;;;;;;;8.77;3.65;;;;;;;;;;4947141;29;20187;-90
2023/09/09 15:45:07;;;;;;;7.88;4.32;;;;;;;;;;4945986;29;20555;-89
2023/09/09 15:48:19;;;;;;;5.95;3.58;;;;;;;;;;4948414;29;20198;-91
2023/09/09 15:51:33;;;;;;;5.40;3.33;;;;;;;;;;4947683;29;20713;-89
2023/09/09 15:54:45;;;;;;;5.70;3.92;;;;;;;;;;4944902;29;20226;-91
2023/09/09 15:58:00;;;;;;;5.30;3.55;;;;;;;;;;4947588;29;20211;-90
2023/09/09 16:01:11;;;;;;;9.95;4.22;;;;;;;;;;4947388;29;20199;-89
2023/09/09 16:04:23;;;;;;;6.05;3.30;;;;;;;;;;4947556;29;20210;-89
2023/09/09 16:07:40;;;;;;;6.75;4.00;;;;;;;;;;4945931;29;20191;-90
2023/09/09 16:10:52;;;;;;;7.95;4.00;;;;;;;;;;4944839;29;20198;-91
2023/09/09 16:14:03;;;;;;;9.60;4.78;;;;;;;;;;4944733;29;20191;-91
2023/09/09 16:17:15;;;;;;;7.65;4.82;;;;;;;;;;4944558;29;20202;-91
2023/09/09 16:20:27;;;;;;;5.43;3.92;;;;;;;;;;4945371;29;20200;-91
2023/09/09 16:23:40;;;;;;;8.85;4.10;;;;;;;;;;4945345;29;20219;-90
2023/09/09 16:26:52;;;;;;;10.32;4.40;;;;;;;;;;4945206;29;20211;-87
2023/09/09 16:30:05;;;;;;;7.78;4.95;;;;;;;;;;4945046;29;20191;-88
2023/09/09 16:33:17;;;;;;;10.05;5.97;;;;;;;;;;4944637;29;20195;-88
2023/09/09 16:36:29;;;;;;;13.60;6.93;;;;;;;;;;4945083;29;20323;-88
2023/09/09 16:39:42;;;;;;;9.70;5.45;;;;;;;;;;4945295;29;20219;-89
2023/09/09 16:42:54;;;;;;;7.80;4.65;;;;;;;;;;4945367;29;20359;-91
2023/09/09 16:46:05;;;;;;;9.73;5.10;;;;;;;;;;4945246;29;20322;-90
2023/09/09 16:49:17;;;;;;;15.45;8.90;;;;;;;;;;4944617;29;20195;-88
2023/09/09 16:52:29;;;;;;;10.52;5.32;;;;;;;;;;4943963;29;20219;-89
2023/09/09 16:55:43;;;;;;;8.73;4.90;;;;;;;;;;4944635;29;20207;-90
2023/09/09 16:58:53;;;;;;;10.55;6.22;;;;;;;;;;4944133;29;20304;-92
2023/09/09 17:02:05;;;;;;;16.15;5.32;;;;;;;;;;4943577;29;20219;-91
2023/09/09 17:05:17;;;;;;;8.48;5.55;;;;;;;;;;4945000;29;20215;-87
2023/09/09 17:08:31;;;;;;;13.05;5.20;;;;;;;;;;4945717;29;20353;-90
2023/09/09 17:11:44;;;;;;;9.73;5.55;;;;;;;;;;4944169;29;20195;-91
2023/09/09 17:14:56;;;;;;;9.15;4.90;;;;;;;;;;4945210;29;20548;-91
2023/09/09 17:18:08;;;;;;;11.65;6.75;;;;;;;;;;4944016;29;20196;-88
2023/09/09 17:21:20;;;;;;;10.68;5.30;;;;;;;;;;4942942;29;20221;-92
2023/09/09 17:24:30;;;;;;;9.63;5.20;;;;;;;;;;4943794;29;20192;-91
2023/09/09 17:27:43;;;;;;;10.23;5.40;;;;;;;;;;4944249;29;20207;-92
2023/09/09 17:30:55;;;;;;;7.60;4.97;;;;;;;;;;4945326;29;20215;-92
2023/09/09 17:34:06;;;;;;;11.32;5.55;;;;;;;;;;4942682;29;20219;-89
2023/09/09 17:37:18;;;;;;;10.05;4.95;;;;;;;;;;4942427;29;20199;-90
2023/09/09 17:40:30;;;;;;;11.32;5.97;;;;;;;;;;4946235;29;20223;-88
2023/09/09 17:43:44;;;;;;;10.05;5.93;;;;;;;;;;4943113;29;20187;-90
2023/09/09 17:46:54;;;;;;;14.35;7.63;;;;;;;;;;4943309;29;20195;-90
2023/09/09 17:50:06;;;;;;;10.43;6.53;;;;;;;;;;4944687;29;20187;-89
2023/09/09 17:53:18;;;;;;;11.13;6.60;;;;;;;;;;4943698;29;20304;-89
2023/09/09 17:56:30;;;;;;;10.50;6.20;;;;;;;;;;4943979;29;20199;-89
2023/09/09 17:59:43;;;;;;;15.20;6.97;;;;;;;;;;4942200;29;20242;-90
2023/09/09 18:02:55;;;;;;;10.40;6.28;;;;;;;;;;4942046;29;20199;-89
2023/09/09 18:06:07;;;;;;;14.18;6.43;;;;;;;;;;4942984;29;20187;-90
2023/09/09 21:17:18;;;;;;;12.77;7.80;;;;;;;;;;5315915;24;20255;-92
2023/09/09 21:20:30;;;;;;;13.23;7.38;;;;;;;;;;4838540;29;20191;-90
2023/09/09 21:27:09;;;;;;;14.82;7.50;;;;;;;;;;4838978;29;20202;-93
2023/09/09 21:30:22;;;;;;;13.57;7.75;;;;;;;;;;4834616;29;20664;-92
2023/09/09 21:33:35;;;;;;;14.32;8.00;;;;;;;;;;4835045;29;20253;-93
2023/09/09 21:36:47;;;;;;;13.10;7.45;;;;;;;;;;4833575;29;20280;-90
2023/09/09 21:39:59;;;;;;;15.85;8.43;;;;;;;;;;4845064;29;20228;-90
2023/09/09 21:43:13;;;;;;;11.32;7.60;;;;;;;;;;4846220;29;20195;-92
2023/09/09 21:46:25;;;;;;;14.05;7.93;;;;;;;;;;4847835;29;20190;-89
2023/09/09 21:49:38;;;;;;;13.10;7.55;;;;;;;;;;4847679;29;20199;-89
2023/09/09 21:52:51;;;;;;;14.60;7.20;;;;;;;;;;4846381;29;20203;-89
2023/09/09 21:56:03;;;;;;;14.43;7.65;;;;;;;;;;4834003;29;20280;-91
2023/09/09 21:59:15;;;;;;;13.40;8.07;;;;;;;;;;4834539;29;20202;-90
2023/09/09 22:02:26;;;;;;;19.33;7.70;;;;;;;;;;4835150;29;20668;-89
2023/09/09 22:05:40;;;;;;;14.57;7.82;;;;;;;;;;4845546;29;20752;-90
2023/09/09 22:08:52;;;;;;;13.82;7.43;;;;;;;;;;4832827;29;20215;-91
2023/09/09 22:12:03;;;;;;;11.50;7.85;;;;;;;;;;4836518;29;20267;-91
2023/09/09 22:15:16;;;;;;;16.60;8.07;;;;;;;;;;4831955;29;20244;-90
2023/09/09 22:18:31;;;;;;;17.27;7.70;;;;;;;;;;4833320;29;20265;-90